createdAt,value
2022-08-16T00:02:33.059Z,4.05
2022-08-16T00:05:00.386Z,4.53
2022-08-16T00:07:29.246Z,4.18
2022-08-16T00:10:00.056Z,4.50
2022-08-16T00:12:30.682Z,4.07
2022-08-16T00:15:02.137Z,4.68
2022-08-16T00:17:28.788Z,5.05
2022-08-16T00:20:15.942Z,4.20
2022-08-16T00:22:48.276Z,4.28
2022-08-16T00:25:20.077Z,4.38
2022-08-16T00:28:07.160Z,4.05
2022-08-16T00:30:35.052Z,3.97
2022-08-16T00:33:02.785Z,4.32
2022-08-16T00:35:34.981Z,4.28
2022-08-16T00:38:40.148Z,4.47
2022-08-16T00:40:55.295Z,4.25
2022-08-16T00:43:40.876Z,4.90
2022-08-16T00:46:33.818Z,4.70
2022-08-16T00:49:06.827Z,5.20
2022-08-16T00:51:44.298Z,3.97
2022-08-16T00:54:12.239Z,4.65
2022-08-16T00:56:57.780Z,4.43
2022-08-16T00:59:28.982Z,4.15
2022-08-16T01:01:56.081Z,4.93
2022-08-16T01:04:30.633Z,4.65
2022-08-16T01:07:01.324Z,5.32
2022-08-16T01:09:42.945Z,5.03
2022-08-16T01:12:11.048Z,5.22
2022-08-16T01:14:56.678Z,4.60
2022-08-16T01:17:24.551Z,4.78
2022-08-16T01:19:58.654Z,5.38
2022-08-16T01:22:48.559Z,4.85
2022-08-16T01:25:22.523Z,4.88
2022-08-16T01:28:07.116Z,5.07
2022-08-16T01:30:40.173Z,5.43
2022-08-16T01:33:19.474Z,5.28
2022-08-16T01:35:54.170Z,5.10
2022-08-16T01:38:39.156Z,4.28
2022-08-16T01:41:10.081Z,4.65
2022-08-16T01:43:39.220Z,4.93
2022-08-16T01:46:37.700Z,5.68
2022-08-16T01:49:14.197Z,4.45
2022-08-16T01:51:43.977Z,4.25
2022-08-16T01:54:13.381Z,3.88
2022-08-16T01:56:52.018Z,4.32
2022-08-16T01:59:21.766Z,4.85
2022-08-16T02:01:59.459Z,4.55
2022-08-16T02:04:49.166Z,4.55
2022-08-16T02:07:18.624Z,5.18
2022-08-16T02:09:56.928Z,5.47
2022-08-16T02:12:49.709Z,5.10
2022-08-16T02:15:14.201Z,4.72
2022-08-16T02:17:41.571Z,4.60
2022-08-16T02:20:12.653Z,5.50
2022-08-16T02:25:10.635Z,4.82
2022-08-16T02:27:39.968Z,4.93
2022-08-16T02:30:37.198Z,4.07
2022-08-16T02:33:03.127Z,4.90
2022-08-16T02:35:30.926Z,4.50
2022-08-16T02:38:01.591Z,6.03
2022-08-16T02:40:35.743Z,4.72
2022-08-16T02:43:02.705Z,4.90
2022-08-16T02:45:29.642Z,4.90
2022-08-16T02:48:01.808Z,5.07
2022-08-16T02:51:03.196Z,5.18
2022-08-16T02:53:31.028Z,5.20
2022-08-16T02:55:59.191Z,5.70
2022-08-16T02:58:27.708Z,5.70
2022-08-16T03:00:57.150Z,4.72
2022-08-16T03:03:26.563Z,5.95
2022-08-16T03:05:53.852Z,5.80
2022-08-16T03:08:52.186Z,5.05
2022-08-16T03:11:17.834Z,4.63
2022-08-16T03:13:56.585Z,4.43
2022-08-16T03:16:37.705Z,4.25
2022-08-16T03:19:08.336Z,4.93
2022-08-16T03:21:37.678Z,5.47
2022-08-16T03:24:29.425Z,5.03
2022-08-16T03:26:58.757Z,4.47
2022-08-16T03:29:30.256Z,5.20
2022-08-16T03:32:01.205Z,5.50
2022-08-16T03:34:30.103Z,5.50
2022-08-16T03:36:57.922Z,5.68
2022-08-16T03:39:24.705Z,5.10
2022-08-16T03:42:00.080Z,4.57
2022-08-16T03:44:44.404Z,5.07
2022-08-16T03:47:18.916Z,5.70
2022-08-16T03:49:51.574Z,5.50
2022-08-16T03:52:23.911Z,5.47
2022-08-16T03:54:59.439Z,5.55
2022-08-16T03:57:32.111Z,5.07
2022-08-16T04:00:20.476Z,5.70
2022-08-16T04:03:07.660Z,4.93
2022-08-16T04:05:47.231Z,5.53
2022-08-16T04:08:22.852Z,4.95
2022-08-16T04:10:55.277Z,4.85
2022-08-16T04:14:01.682Z,4.63
2022-08-16T04:16:27.590Z,5.20
2022-08-16T04:19:04.785Z,5.00
2022-08-16T04:21:34.541Z,4.20
2022-08-16T04:24:02.823Z,4.82
2022-08-16T04:26:30.905Z,4.68
2022-08-16T04:29:14.960Z,5.00
2022-08-16T04:31:56.628Z,5.57
2022-08-16T04:34:30.612Z,5.13
2022-08-16T04:37:01.453Z,5.45
2022-08-16T04:39:44.905Z,5.20
2022-08-16T04:42:18.869Z,6.00
2022-08-16T04:44:56.055Z,4.63
2022-08-16T04:47:31.408Z,4.32
2022-08-16T04:49:59.958Z,3.90
2022-08-16T04:52:34.438Z,3.95
2022-08-16T04:55:09.822Z,4.18
2022-08-16T04:57:39.314Z,3.90
2022-08-16T05:00:30.522Z,3.35
2022-08-16T05:03:10.253Z,3.75
2022-08-16T05:05:59.587Z,3.90
2022-08-16T05:08:31.005Z,3.40
2022-08-16T05:11:12.369Z,3.28
2022-08-16T05:13:43.042Z,3.28
2022-08-16T05:16:21.683Z,3.37
2022-08-16T05:18:56.871Z,3.13
2022-08-16T05:21:28.308Z,2.90
2022-08-16T05:26:33.236Z,2.92
2022-08-16T05:29:03.533Z,3.58
2022-08-16T05:31:31.529Z,2.80
2022-08-16T05:34:03.186Z,2.80
2022-08-16T05:36:33.788Z,2.40
2022-08-16T05:39:03.845Z,2.70
2022-08-16T05:41:30.792Z,3.00
2022-08-16T05:44:01.235Z,3.00
2022-08-16T05:46:43.580Z,3.20
2022-08-16T05:49:22.256Z,3.13
2022-08-16T05:51:52.938Z,3.53
2022-08-16T05:54:20.297Z,2.80
2022-08-16T05:56:57.336Z,3.53
2022-08-16T05:59:26.939Z,2.47
2022-08-16T06:01:55.049Z,2.55
2022-08-16T06:04:36.264Z,2.65
2022-08-16T06:07:08.904Z,2.72
2022-08-16T06:09:43.523Z,3.58
2022-08-16T06:12:27.022Z,2.63
2022-08-16T06:14:59.140Z,3.15
2022-08-16T06:17:41.447Z,3.50
2022-08-16T06:20:34.660Z,3.25
2022-08-16T06:23:11.790Z,3.00
2022-08-16T06:25:57.277Z,3.70
2022-08-16T06:28:36.548Z,3.20
2022-08-16T06:31:11.714Z,3.88
2022-08-16T06:33:41.933Z,3.80
2022-08-16T06:36:14.259Z,3.80
2022-08-16T06:38:55.419Z,3.53
2022-08-16T06:41:39.637Z,3.97
2022-08-16T06:44:21.409Z,4.57
2022-08-16T06:46:54.792Z,4.20
2022-08-16T06:49:22.496Z,5.10
2022-08-16T06:51:49.489Z,4.90
2022-08-16T06:54:22.709Z,4.70
2022-08-16T06:56:52.431Z,4.88
2022-08-16T06:59:25.833Z,4.03
2022-08-16T07:01:58.380Z,5.13
2022-08-16T07:04:32.026Z,5.45
2022-08-16T07:07:05.971Z,4.47
2022-08-16T07:09:33.008Z,5.38
2022-08-16T07:12:03.522Z,4.70
2022-08-16T07:14:35.134Z,4.90
2022-08-16T07:17:08.260Z,4.78
2022-08-16T07:20:29.358Z,4.60
2022-08-16T07:22:39.866Z,4.28
2022-08-16T07:25:18.849Z,4.35
2022-08-16T07:27:49.625Z,4.72
2022-08-16T07:30:46.122Z,4.50
2022-08-16T07:33:09.741Z,4.45
2022-08-16T07:35:44.404Z,4.13
2022-08-16T07:38:19.800Z,3.88
2022-08-16T07:40:59.708Z,3.85
2022-08-16T07:43:29.676Z,3.70
2022-08-16T07:46:01.285Z,3.88
2022-08-16T07:48:29.131Z,3.95
2022-08-16T07:50:59.237Z,3.45
2022-08-16T07:53:30.443Z,3.40
2022-08-16T07:56:00.552Z,3.20
2022-08-16T07:58:36.210Z,3.40
2022-08-16T08:01:10.741Z,2.88
2022-08-16T08:03:48.988Z,3.13
2022-08-16T08:06:22.777Z,2.38
2022-08-16T08:08:56.994Z,2.60
2022-08-16T08:11:25.275Z,2.08
2022-08-16T08:13:57.654Z,1.80
2022-08-16T08:16:32.646Z,2.50
2022-08-16T08:19:02.824Z,2.53
2022-08-16T08:21:58.893Z,2.45
2022-08-16T08:24:31.536Z,2.40
2022-08-16T08:27:02.474Z,2.92
2022-08-16T08:29:37.352Z,2.13
2022-08-16T08:32:58.122Z,2.63
2022-08-16T08:35:00.518Z,2.75
2022-08-16T08:37:41.717Z,2.45
2022-08-16T08:40:24.677Z,2.75
2022-08-16T08:42:57.631Z,2.53
2022-08-16T08:45:46.808Z,3.13
2022-08-16T08:48:32.914Z,2.08
2022-08-16T08:51:04.341Z,2.72
2022-08-16T08:53:33.668Z,2.30
2022-08-16T08:56:01.474Z,2.17
2022-08-16T08:58:54.791Z,2.47
2022-08-16T09:01:42.527Z,2.78
2022-08-16T09:04:14.722Z,2.88
2022-08-16T09:06:45.606Z,2.50
2022-08-16T09:09:16.855Z,2.95
2022-08-16T09:11:53.524Z,2.78
2022-08-16T09:14:35.437Z,3.50
2022-08-16T09:17:11.703Z,3.22
2022-08-16T09:19:44.327Z,2.40
2022-08-16T09:22:20.053Z,2.70
2022-08-16T09:24:52.759Z,2.80
2022-08-16T09:27:23.557Z,3.50
2022-08-16T09:30:00.126Z,3.10
2022-08-16T09:32:31.167Z,2.75
2022-08-16T09:34:59.849Z,2.35
2022-08-16T09:37:29.871Z,2.78
2022-08-16T09:40:00.936Z,3.05
2022-08-16T09:42:29.710Z,2.95
2022-08-16T09:45:13.191Z,3.28
2022-08-16T09:47:56.430Z,3.03
2022-08-16T09:50:37.075Z,3.45
2022-08-16T09:53:15.574Z,3.08
2022-08-16T09:55:48.995Z,2.90
2022-08-16T09:58:37.869Z,2.70
2022-08-16T10:01:03.534Z,3.38
2022-08-16T10:03:31.804Z,2.38
2022-08-16T10:05:58.573Z,3.05
2022-08-16T10:08:27.482Z,2.50
2022-08-16T10:11:13.104Z,2.85
2022-08-16T10:13:43.764Z,3.25
2022-08-16T10:19:01.394Z,2.63
2022-08-16T10:21:29.614Z,2.67
2022-08-16T10:23:58.708Z,2.65
2022-08-16T10:27:17.873Z,2.58
2022-08-16T10:29:11.916Z,2.88
2022-08-16T10:31:53.493Z,2.78
2022-08-16T10:34:31.872Z,2.67
2022-08-16T10:37:00.500Z,2.15
2022-08-16T10:39:40.929Z,2.20
2022-08-16T10:42:10.561Z,3.45
2022-08-16T10:44:40.081Z,2.60
2022-08-16T10:47:09.588Z,3.05
2022-08-16T10:49:39.033Z,2.90
2022-08-16T10:52:17.963Z,2.80
2022-08-16T10:55:40.768Z,2.40
2022-08-16T10:57:32.968Z,2.40
2022-08-16T11:00:00.024Z,2.97
2022-08-16T11:02:58.566Z,2.38
2022-08-16T11:05:17.109Z,2.65
2022-08-16T11:07:52.115Z,2.50
2022-08-16T11:19:05.498Z,2.80
2022-08-16T11:21:37.407Z,2.85
2022-08-16T11:24:05.012Z,2.72
2022-08-16T11:27:18.431Z,3.22
2022-08-16T11:29:39.184Z,2.50
2022-08-16T11:32:07.616Z,2.53
2022-08-16T11:35:05.792Z,2.63
2022-08-16T11:37:27.514Z,2.40
2022-08-16T11:40:02.620Z,2.13
2022-08-16T11:42:32.177Z,2.35
2022-08-16T11:45:00.983Z,2.50
2022-08-16T11:47:28.662Z,2.65
2022-08-16T11:49:55.186Z,2.47
2022-08-16T11:52:23.745Z,2.45
2022-08-16T11:54:57.040Z,2.20
2022-08-16T11:57:26.585Z,1.60
2022-08-16T11:59:54.951Z,2.30
2022-08-16T12:02:32.584Z,2.00
2022-08-16T12:04:59.796Z,2.78
2022-08-16T12:07:27.822Z,2.40
2022-08-16T12:09:55.129Z,1.65
2022-08-16T12:12:23.567Z,2.58
2022-08-16T12:14:59.199Z,2.22
2022-08-16T12:17:31.914Z,2.15
2022-08-16T12:20:00.522Z,2.33
2022-08-16T12:22:27.745Z,2.65
2022-08-16T12:24:54.368Z,2.00
2022-08-16T12:27:23.907Z,3.15
2022-08-16T12:29:54.430Z,2.15
2022-08-16T12:32:38.236Z,2.90
2022-08-16T12:35:10.110Z,2.40
2022-08-16T12:37:37.014Z,2.50
2022-08-16T12:40:21.244Z,2.20
2022-08-16T12:42:54.761Z,2.30
2022-08-16T12:45:27.876Z,2.25
2022-08-16T12:48:34.534Z,2.15
2022-08-16T12:51:01.103Z,2.20
2022-08-16T12:53:32.085Z,2.28
2022-08-16T12:55:59.473Z,2.42
2022-08-16T12:58:49.500Z,2.00
2022-08-16T13:01:14.838Z,1.80
2022-08-16T13:03:42.135Z,2.30
2022-08-16T13:06:09.880Z,2.10
2022-08-16T13:08:39.670Z,1.70
2022-08-16T13:11:07.645Z,1.70
2022-08-16T13:13:35.322Z,1.80
2022-08-16T13:16:15.140Z,1.92
2022-08-16T13:18:42.540Z,1.70
2022-08-16T13:21:10.571Z,1.70
2022-08-16T13:23:43.548Z,1.85
2022-08-16T13:26:10.739Z,2.20
2022-08-16T13:28:37.263Z,1.98
2022-08-16T13:31:04.150Z,1.70
2022-08-16T13:33:36.996Z,2.00
2022-08-16T13:36:17.097Z,2.17
2022-08-16T13:38:55.372Z,1.83
2022-08-16T13:41:23.880Z,2.13
2022-08-16T13:43:57.904Z,1.85
2022-08-16T13:46:26.832Z,1.50
2022-08-16T13:48:53.445Z,2.00
2022-08-16T13:51:23.699Z,1.85
2022-08-16T13:53:59.351Z,1.90
2022-08-16T13:56:38.161Z,1.52
2022-08-16T13:59:19.326Z,1.67
2022-08-16T14:01:55.243Z,1.45
2022-08-16T14:04:27.436Z,1.55
2022-08-16T14:06:56.374Z,1.83
2022-08-16T14:09:23.977Z,1.70
2022-08-16T14:11:53.379Z,2.10
2022-08-16T14:14:28.354Z,1.77
2022-08-16T14:16:56.071Z,1.75
2022-08-16T14:19:22.901Z,1.63
2022-08-16T14:22:13.350Z,2.20
2022-08-16T14:24:36.904Z,1.88
2022-08-16T14:27:04.784Z,2.65
2022-08-16T14:29:32.260Z,1.83
2022-08-16T14:32:05.338Z,2.08
2022-08-16T14:34:32.047Z,1.83
2022-08-16T14:36:59.595Z,1.95
2022-08-16T14:39:26.576Z,1.80
2022-08-16T14:41:53.637Z,1.60
2022-08-16T14:44:23.080Z,1.88
2022-08-16T14:46:49.765Z,1.77
2022-08-16T14:49:19.354Z,1.92
2022-08-16T14:51:46.361Z,2.28
2022-08-16T14:54:15.199Z,1.92
2022-08-16T14:56:54.412Z,1.50
2022-08-16T14:59:21.935Z,1.70
2022-08-16T15:01:59.255Z,2.10
2022-08-16T15:04:32.550Z,1.85
2022-08-16T15:07:06.770Z,2.28
2022-08-16T15:09:44.330Z,1.80
2022-08-16T15:12:26.974Z,2.40
2022-08-16T15:14:58.130Z,1.98
2022-08-16T15:17:27.673Z,2.08
2022-08-16T15:20:01.128Z,2.10
2022-08-16T15:22:30.693Z,2.10
2022-08-16T15:25:06.071Z,2.30
2022-08-16T15:27:36.875Z,1.63
2022-08-16T15:30:45.733Z,2.13
2022-08-16T15:33:00.087Z,2.50
2022-08-16T15:35:26.749Z,2.60
2022-08-16T15:37:56.634Z,1.95
2022-08-16T15:40:32.572Z,2.25
2022-08-16T15:43:02.897Z,2.33
2022-08-16T15:45:55.605Z,2.00
2022-08-16T15:48:29.161Z,2.05
2022-08-16T15:50:59.051Z,2.15
2022-08-16T15:53:30.679Z,2.30
2022-08-16T15:55:59.436Z,2.35
2022-08-16T15:58:34.517Z,2.33
2022-08-16T16:03:34.648Z,2.30
2022-08-16T16:06:02.691Z,1.67
2022-08-16T16:08:30.982Z,1.92
2022-08-16T16:11:01.577Z,2.20
2022-08-16T16:13:30.505Z,2.15
2022-08-16T16:16:00.442Z,2.00
2022-08-16T16:18:29.897Z,2.40
2022-08-16T16:21:00.844Z,1.85
2022-08-16T16:23:31.233Z,2.00
2022-08-16T16:25:58.563Z,2.38
2022-08-16T16:29:07.403Z,1.80
2022-08-16T16:31:17.955Z,2.42
2022-08-16T16:33:47.784Z,2.33
2022-08-16T16:36:19.222Z,2.38
2022-08-16T16:38:47.543Z,2.03
2022-08-16T16:41:17.041Z,1.95
2022-08-16T16:43:44.915Z,2.45
2022-08-16T16:46:42.630Z,1.70
2022-08-16T16:49:04.059Z,2.03
2022-08-16T16:51:31.307Z,1.90
2022-08-16T16:54:01.103Z,2.35
2022-08-16T16:56:31.236Z,2.10
2022-08-16T16:59:06.989Z,1.90
2022-08-16T17:01:59.584Z,2.53
2022-08-16T17:04:34.005Z,2.00
2022-08-16T17:07:01.840Z,2.30
2022-08-16T17:09:29.483Z,1.85
2022-08-16T17:11:57.089Z,2.20
2022-08-16T17:14:33.180Z,2.08
2022-08-16T17:17:07.069Z,2.40
2022-08-16T17:19:40.158Z,2.03
2022-08-16T17:22:14.044Z,2.05
2022-08-16T17:24:45.380Z,2.10
2022-08-16T17:27:18.380Z,2.00
2022-08-16T17:29:58.690Z,2.42
2022-08-16T17:32:33.537Z,2.30
2022-08-16T17:35:18.464Z,2.17
2022-08-16T17:37:51.228Z,2.35
2022-08-16T17:40:40.875Z,2.45
2022-08-16T17:43:12.517Z,2.65
2022-08-16T17:45:40.546Z,2.05
2022-08-16T17:48:07.652Z,2.25
2022-08-16T17:50:34.559Z,2.40
2022-08-16T17:53:03.199Z,2.70
2022-08-16T17:55:36.673Z,2.25
2022-08-16T17:58:23.131Z,2.53
2022-08-16T18:04:03.197Z,2.42
2022-08-16T18:06:16.607Z,2.47
2022-08-16T18:08:43.498Z,2.47
2022-08-16T18:11:12.760Z,2.45
2022-08-16T18:13:43.184Z,2.60
2022-08-16T18:16:11.298Z,2.35
2022-08-16T18:18:37.908Z,2.15
2022-08-16T18:21:23.048Z,2.45
2022-08-16T18:23:49.558Z,3.03
2022-08-16T18:26:16.111Z,2.58
2022-08-16T18:31:09.390Z,2.30
2022-08-16T18:33:43.290Z,2.33
2022-08-16T18:36:21.172Z,2.67
2022-08-16T18:38:49.527Z,3.05
2022-08-16T18:41:16.429Z,2.70
2022-08-16T18:44:22.587Z,3.65
2022-08-16T18:46:29.470Z,2.70
2022-08-16T18:51:25.160Z,3.17
2022-08-16T18:53:52.481Z,2.63
2022-08-16T18:56:19.032Z,3.20
2022-08-16T19:01:11.962Z,4.32
2022-08-16T19:06:13.525Z,3.72
2022-08-16T19:08:41.895Z,3.50
2022-08-16T19:11:13.960Z,3.42
2022-08-16T19:13:44.211Z,3.47
2022-08-16T19:16:12.639Z,3.00
2022-08-16T19:18:39.577Z,3.67
2022-08-16T19:21:07.133Z,3.13
2022-08-16T19:23:37.306Z,4.20
2022-08-16T19:26:24.552Z,4.32
2022-08-16T19:28:58.829Z,3.80
2022-08-16T19:31:30.966Z,4.22
2022-08-16T19:33:58.099Z,4.25
2022-08-16T19:36:35.522Z,3.63
2022-08-16T19:39:08.626Z,3.80
2022-08-16T19:41:37.942Z,4.20
2022-08-16T19:44:05.612Z,3.65
2022-08-16T19:46:32.214Z,3.63
2022-08-16T19:51:25.371Z,3.50
2022-08-16T19:56:18.724Z,4.63
2022-08-16T19:59:08.781Z,4.72
2022-08-16T20:01:32.407Z,4.53
2022-08-16T20:06:38.170Z,3.67
2022-08-16T20:09:05.585Z,3.80
2022-08-16T20:11:32.420Z,4.20
2022-08-16T20:13:59.444Z,4.53
2022-08-16T20:16:26.147Z,4.47
2022-08-16T20:21:19.444Z,4.35
2022-08-16T20:23:46.246Z,4.13
2022-08-16T20:26:12.859Z,4.28
2022-08-16T20:31:24.308Z,4.53
2022-08-16T20:33:52.647Z,4.10
2022-08-16T20:36:19.268Z,5.07
2022-08-16T20:41:14.535Z,4.43
2022-08-16T20:43:41.081Z,4.60
2022-08-16T20:46:07.919Z,4.65
2022-08-16T20:48:34.587Z,3.83
2022-08-16T20:53:27.586Z,4.65
2022-08-16T20:55:54.545Z,4.20
2022-08-16T20:58:21.119Z,4.13
2022-08-16T21:03:14.412Z,4.22
2022-08-16T21:05:41.125Z,4.13
2022-08-16T21:08:32.817Z,4.50
2022-08-16T21:10:56.359Z,3.90
2022-08-16T21:13:25.587Z,4.30
2022-08-16T21:15:52.580Z,4.70
2022-08-16T21:18:19.083Z,4.72
2022-08-16T21:20:45.685Z,3.95
2022-08-16T21:25:58.300Z,4.20
2022-08-16T21:28:38.819Z,4.43
2022-08-16T21:31:09.133Z,4.13
2022-08-16T21:33:36.025Z,4.28
2022-08-16T21:38:30.885Z,4.65
2022-08-16T21:40:59.765Z,4.70
2022-08-16T21:43:28.706Z,4.30
2022-08-16T21:45:55.929Z,5.03
2022-08-16T21:48:34.129Z,4.80
2022-08-16T21:51:05.837Z,4.82
2022-08-16T21:53:32.657Z,4.53
2022-08-16T21:56:00.635Z,5.10
2022-08-16T21:58:27.689Z,4.28
2022-08-16T22:02:41.642Z,4.88
2022-08-16T22:05:08.408Z,4.88
2022-08-16T22:07:35.098Z,5.53
2022-08-16T22:12:48.763Z,5.88
2022-08-16T22:15:15.667Z,5.45
2022-08-16T22:17:43.095Z,5.75
2022-08-16T22:20:10.870Z,5.88
2022-08-16T22:22:37.965Z,5.93
2022-08-16T22:25:04.911Z,5.47
2022-08-16T22:27:31.465Z,5.60
2022-08-16T22:32:26.142Z,5.20
2022-08-16T22:34:53.691Z,5.03
2022-08-16T22:37:25.981Z,5.93
2022-08-16T22:39:52.623Z,5.88
2022-08-16T22:42:19.677Z,5.50
2022-08-16T22:44:46.624Z,5.88
2022-08-16T22:47:14.592Z,6.45
2022-08-16T22:49:41.205Z,5.65
2022-08-16T22:52:09.553Z,5.35
2022-08-16T22:54:48.068Z,5.57
2022-08-16T22:57:15.500Z,4.35
2022-08-16T22:59:41.969Z,6.07
2022-08-16T23:02:09.889Z,5.80
2022-08-16T23:04:36.757Z,5.57
2022-08-16T23:07:03.627Z,5.70
2022-08-16T23:09:32.062Z,5.20
2022-08-16T23:12:03.716Z,6.20
2022-08-16T23:14:30.248Z,5.40
2022-08-16T23:16:56.708Z,5.25
2022-08-16T23:19:23.336Z,5.30
2022-08-16T23:21:50.238Z,5.15
2022-08-16T23:24:20.227Z,5.63
2022-08-16T23:26:49.108Z,5.53
2022-08-16T23:29:23.475Z,5.00
2022-08-16T23:31:58.650Z,5.35
2022-08-16T23:34:28.035Z,5.30
2022-08-16T23:36:55.190Z,5.32
2022-08-16T23:39:21.934Z,5.03
2022-08-16T23:41:48.443Z,5.57
2022-08-16T23:44:55.291Z,5.45
2022-08-16T23:47:01.554Z,6.55
2022-08-16T23:52:14.522Z,5.38
2022-08-16T23:54:41.125Z,5.05
2022-08-16T23:59:37.487Z,5.25
